Time;durP1;ratioP1;P1;durP2;ratioP2;P2;SDS_P1;SDS_P2;PMS_P1;PMS_P2;Temp;Humidity;BMP_temperature;BMP_pressure;BME280_temperature;BME280_humidity;BME280_pressure;Samples;Min_cycle;Max_cycle;Signal;HPM_P1;HPM_P2
2021/07/11 00:02:21;;;;;;;15.95;9.38;;;;;;;16.45;86.61;101272.91;5113822;28;20117;-64
2021/07/11 00:04:48;;;;;;;18.48;9.95;;;;;;;16.42;86.45;101271.41;5115051;28;20089;-64
2021/07/11 00:07:15;;;;;;;20.23;10.07;;;;;;;16.41;86.68;101267.06;5112846;28;20048;-64
2021/07/11 00:09:42;;;;;;;19.52;9.48;;;;;;;16.36;85.68;101260.59;5115045;28;20512;-64
2021/07/11 00:12:10;;;;;;;19.83;10.10;;;;;;;16.38;86.14;101255.88;5113587;28;20059;-64
2021/07/11 00:14:37;;;;;;;19.67;10.55;;;;;;;16.38;87.00;101254.03;5115049;28;20078;-64
2021/07/11 00:17:04;;;;;;;21.83;10.38;;;;;;;16.35;87.04;101258.91;5114852;28;20044;-64
2021/07/11 00:19:31;;;;;;;19.35;10.32;;;;;;;16.33;87.11;101263.63;5114475;28;20047;-64
2021/07/11 00:21:58;;;;;;;19.98;10.95;;;;;;;16.34;87.38;101255.41;5113690;28;20050;-64
2021/07/11 00:24:24;;;;;;;23.10;10.43;;;;;;;16.40;86.60;101267.25;5096618;28;20387;-64
2021/07/11 00:26:51;;;;;;;21.00;10.60;;;;;;;16.39;86.89;101261.06;5114398;28;20043;-64
2021/07/11 00:29:19;;;;;;;19.25;11.07;;;;;;;16.40;87.64;101273.41;5114469;28;20456;-64
2021/07/11 00:31:46;;;;;;;17.83;10.40;;;;;;;16.44;87.42;101263.19;5096484;28;20131;-64
2021/07/11 00:34:13;;;;;;;22.58;10.68;;;;;;;16.51;87.13;101264.13;5111243;27;20063;-64
2021/07/11 00:36:40;;;;;;;19.08;10.88;;;;;;;16.52;86.51;101279.19;5096664;28;20039;-64
2021/07/11 00:39:07;;;;;;;19.35;11.05;;;;;;;16.62;86.28;101277.09;5114401;28;20052;-64
2021/07/11 00:41:39;;;;;;;20.67;11.05;;;;;;;16.55;86.20;101273.47;5113078;28;20040;-64
2021/07/11 00:44:08;;;;;;;21.95;10.95;;;;;;;16.58;86.21;101275.78;5114465;28;20046;-64
2021/07/11 00:46:43;;;;;;;18.23;10.48;;;;;;;16.56;86.71;101279.69;5112653;28;20046;-64
2021/07/11 00:49:10;;;;;;;26.73;11.18;;;;;;;16.64;86.41;101283.09;5114187;28;20066;-64
2021/07/11 00:51:39;;;;;;;22.70;11.52;;;;;;;16.62;87.19;101284.28;5096366;28;20040;-64
2021/07/11 00:54:06;;;;;;;19.85;10.95;;;;;;;16.60;87.14;101286.31;5114011;28;20089;-64
2021/07/11 00:56:33;;;;;;;23.70;11.32;;;;;;;16.63;87.38;101285.97;5114032;28;20067;-64
2021/07/11 00:59:00;;;;;;;28.27;11.15;;;;;;;16.77;87.00;101292.38;5113769;28;20043;-64
2021/07/11 01:01:36;;;;;;;23.80;11.38;;;;;;;16.67;87.22;101289.94;5113607;28;20067;-64
2021/07/11 01:04:10;;;;;;;22.65;11.70;;;;;;;16.71;86.58;101277.84;5112558;28;20075;-64
2021/07/11 01:06:42;;;;;;;22.92;11.30;;;;;;;16.72;86.49;101287.56;5113817;28;20043;-64
2021/07/11 01:09:15;;;;;;;24.95;10.40;;;;;;;16.71;86.58;101280.53;5113671;28;20065;-64
2021/07/11 01:11:50;;;;;;;21.58;10.38;;;;;;;16.64;87.25;101280.41;5111617;28;20093;-64
2021/07/11 01:14:17;;;;;;;;;;;;;;;16.74;86.79;101282.84;5096205;28;20040;-64
2021/07/11 01:16:48;;;;;;;23.50;10.75;;;;;;;16.76;86.87;101286.19;5103215;28;19920;-64
2021/07/11 01:19:34;;;;;;;19.55;10.77;;;;;;;16.86;86.59;101291.31;5091529;28;20044;-64
2021/07/11 01:22:07;;;;;;;25.30;11.57;;;;;;;16.97;85.30;101296.25;5093057;28;20070;-64
2021/07/11 01:24:46;;;;;;;25.90;11.80;;;;;;;16.80;86.59;101292.00;5091722;28;20135;-64
2021/07/11 01:27:13;;;;;;;19.80;10.88;;;;;;;16.80;86.06;101306.22;5092978;28;20068;-64
2021/07/11 01:29:41;;;;;;;24.40;10.90;;;;;;;16.65;86.65;101308.06;5108779;28;20392;-64
2021/07/11 01:32:12;;;;;;;25.33;11.38;;;;;;;16.65;86.94;101308.88;5093098;28;20089;-64
2021/07/11 01:34:40;;;;;;;22.80;11.57;;;;;;;16.74;86.82;101309.66;5092564;28;20032;-64
2021/07/11 01:37:07;;;;;;;25.98;12.50;;;;;;;16.84;86.20;101306.72;5092879;28;20067;-64
2021/07/11 01:39:34;;;;;;;24.73;12.48;;;;;;;16.73;87.29;101305.28;5092682;28;20068;-64
2021/07/11 01:42:03;;;;;;;23.63;12.13;;;;;;;16.67;86.24;101311.38;5093785;28;20105;-64
2021/07/11 01:44:30;;;;;;;25.35;13.15;;;;;;;16.72;86.57;101303.63;5113328;28;20039;-64
2021/07/11 01:47:00;;;;;;;29.45;14.48;;;;;;;16.65;86.86;101306.19;5111813;28;20163;-64
2021/07/11 01:49:27;;;;;;;29.05;15.38;;;;;;;16.56;87.36;101303.78;5095287;28;20047;-64
2021/07/11 01:51:57;;;;;;;26.27;15.30;;;;;;;16.67;86.19;101298.81;5112999;28;20043;-64
2021/07/11 01:54:28;;;;;;;32.30;17.45;;;;;;;16.61;86.08;101293.38;5112997;28;20040;-64
2021/07/11 01:56:57;;;;;;;36.35;18.92;;;;;;;16.74;84.43;101288.22;5112334;28;20489;-64
2021/07/11 01:59:23;;;;;;;37.05;20.73;;;;;;;16.57;84.79;101297.38;5094914;28;20074;-64
2021/07/11 02:02:06;;;;;;;39.50;22.15;;;;;;;16.48;85.78;101293.94;5112948;28;20048;-64
2021/07/11 02:04:39;;;;;;;45.03;22.65;;;;;;;16.67;84.66;101293.44;5112829;28;20036;-64
2021/07/11 02:07:05;;;;;;;47.00;23.63;;;;;;;16.44;86.41;101296.16;5112339;28;20500;-64
2021/07/11 02:09:33;;;;;;;43.55;22.23;;;;;;;16.63;85.19;101304.72;5111420;28;20082;-64
2021/07/11 02:12:07;;;;;;;47.20;24.00;;;;;;;16.50;85.71;101303.47;5112105;28;20526;-64
2021/07/11 02:14:47;;;;;;;44.85;24.48;;;;;;;16.43;86.82;101304.38;5111443;28;20395;-64
2021/07/11 02:17:20;;;;;;;49.17;25.55;;;;;;;16.46;86.84;101299.50;5111544;28;20385;-64
2021/07/11 02:20:01;;;;;;;41.00;22.42;;;;;;;16.62;85.33;101300.38;5113165;28;20508;-64
2021/07/11 02:22:34;;;;;;;45.55;24.48;;;;;;;16.59;85.53;101295.38;5112810;28;20511;-64
2021/07/11 02:25:04;;;;;;;40.20;23.73;;;;;;;16.43;85.64;101296.34;5115899;28;20047;-64
2021/07/11 02:27:32;;;;;;;44.28;24.45;;;;;;;16.48;85.72;101296.63;5116826;28;20051;-64
2021/07/11 02:30:06;;;;;;;46.90;24.40;;;;;;;16.40;86.08;101289.50;5117118;28;20040;-64
2021/07/11 02:32:34;;;;;;;43.70;23.35;;;;;;;16.40;86.12;101286.81;5116702;28;20070;-64
2021/07/11 02:35:01;;;;;;;43.15;25.00;;;;;;;16.43;86.88;101289.13;5115115;28;20044;-64
2021/07/11 02:37:31;;;;;;;42.15;23.00;;;;;;;16.60;84.79;101284.47;5115460;28;20040;-64
2021/07/11 02:40:01;;;;;;;47.92;24.90;;;;;;;16.36;86.00;101282.00;5115728;28;20537;-64
2021/07/11 02:42:29;;;;;;;38.40;22.65;;;;;;;16.55;84.45;101284.19;5115432;28;20050;-64
2021/07/11 02:44:56;;;;;;;38.97;22.42;;;;;;;16.43;85.23;101289.13;5098727;28;20054;-64
2021/07/11 02:47:37;;;;;;;42.38;22.70;;;;;;;16.38;85.46;101291.50;5097798;28;20399;-64
2021/07/11 02:50:07;;;;;;;42.60;23.67;;;;;;;16.38;86.53;101293.38;5116387;28;20094;-64
2021/07/11 02:52:42;;;;;;;41.13;24.17;;;;;;;16.33;86.60;101296.56;5116223;27;20062;-64
2021/07/11 02:55:16;;;;;;;44.35;23.95;;;;;;;16.37;86.78;101297.03;5116154;28;20048;-64
2021/07/11 02:57:52;;;;;;;43.90;23.67;;;;;;;16.34;87.28;101303.59;5115170;28;20039;-64
2021/07/11 03:00:19;;;;;;;38.08;22.75;;;;;;;16.35;86.34;101301.75;5114828;28;20051;-64
2021/07/11 03:02:46;;;;;;;42.40;24.50;;;;;;;16.27;86.16;101305.31;5114705;28;20048;-64
2021/07/11 03:05:22;;;;;;;46.42;23.33;;;;;;;16.20;86.96;101299.84;5115057;28;20044;-64
2021/07/11 03:07:52;;;;;;;42.28;24.63;;;;;;;16.26;87.03;101303.66;5116135;28;20040;-64
2021/07/11 03:10:19;;;;;;;40.38;23.02;;;;;;;16.23;85.97;101307.53;5116516;28;20044;-64
2021/07/11 03:12:52;;;;;;;41.13;23.02;;;;;;;16.12;85.71;101303.41;5115902;28;20047;-64
2021/07/11 03:15:19;;;;;;;45.35;25.13;;;;;;;16.25;85.15;101307.34;5115812;27;20054;-64
2021/07/11 03:17:54;;;;;;;50.30;25.05;;;;;;;16.34;85.53;101310.81;5116501;27;20126;-64
2021/07/11 03:20:23;;;;;;;46.30;24.43;;;;;;;16.10;85.61;101315.31;5116010;28;20124;-64
2021/07/11 03:22:54;;;;;;;44.30;24.33;;;;;;;16.33;84.96;101307.28;5115567;28;20289;-64
2021/07/11 03:25:25;;;;;;;45.20;24.92;;;;;;;15.96;85.97;101316.06;5114628;28;20392;-64
2021/07/11 03:27:52;;;;;;;44.03;25.80;;;;;;;16.18;85.32;101320.59;5115614;28;20046;-64
2021/07/11 03:30:21;;;;;;;52.10;26.30;;;;;;;16.10;85.53;101320.66;5114683;28;20042;-64
2021/07/11 03:32:59;;;;;;;47.40;26.33;;;;;;;16.21;85.55;101319.41;5115962;28;20039;-64
2021/07/11 03:35:49;;;;;;;45.15;25.77;;;;;;;16.18;84.91;101319.78;5114551;28;20047;-64
2021/07/11 03:38:21;;;;;;;53.23;27.33;;;;;;;16.03;86.05;101327.72;5115612;28;20131;-64
2021/07/11 03:40:53;;;;;;;50.37;27.13;;;;;;;16.00;86.42;101333.41;5115380;28;20132;-64
2021/07/11 03:43:23;;;;;;;47.88;26.08;;;;;;;15.98;86.08;101330.91;5113947;28;20050;-64
2021/07/11 03:45:55;;;;;;;45.22;27.13;;;;;;;16.16;85.30;101337.84;5097573;28;20180;-64
2021/07/11 03:48:26;;;;;;;44.75;27.30;;;;;;;15.96;86.43;101338.28;5114026;28;20044;-64
2021/07/11 03:50:58;;;;;;;47.10;27.83;;;;;;;16.02;85.81;101334.91;5097059;28;20139;-64
2021/07/11 03:53:27;;;;;;;;;;;;;;;15.98;86.48;101340.78;5114568;28;20031;-64
2021/07/11 03:55:55;;;;;;;49.88;26.90;;;;;;;15.93;86.80;101342.16;5113760;28;19959;-64
2021/07/11 03:58:23;;;;;;;52.30;28.52;;;;;;;15.93;86.85;101346.66;5114759;28;20039;-64
2021/07/11 04:00:52;;;;;;;46.92;27.80;;;;;;;16.18;85.52;101344.69;5113716;28;20051;-64
2021/07/11 04:03:24;;;;;;;48.55;27.08;;;;;;;16.04;86.57;101351.59;5115166;28;20040;-64
2021/07/11 04:05:52;;;;;;;43.50;26.15;;;;;;;15.98;86.73;101355.00;5115098;28;20127;-64
2021/07/11 04:08:21;;;;;;;45.88;25.95;;;;;;;16.10;85.72;101353.59;5114890;28;20051;-64
2021/07/11 04:10:49;;;;;;;45.78;24.80;;;;;;;16.21;85.08;101349.69;5115159;28;20480;-64
2021/07/11 04:13:16;;;;;;;46.17;25.45;;;;;;;16.17;86.03;101348.38;5113694;28;20043;-64
2021/07/11 04:15:50;;;;;;;45.72;25.05;;;;;;;16.00;86.14;101355.66;5114608;28;20035;-64
2021/07/11 04:18:21;;;;;;;47.63;26.25;;;;;;;16.02;85.98;101352.81;5113069;28;20069;-63
2021/07/11 04:20:52;;;;;;;45.78;25.30;;;;;;;16.08;85.87;101350.28;5113226;28;20039;-64
2021/07/11 04:23:23;;;;;;;48.80;24.80;;;;;;;16.18;84.84;101352.72;5096422;28;20035;-64
2021/07/11 04:25:54;;;;;;;48.60;25.60;;;;;;;15.90;86.26;101350.53;5113401;28;20051;-64
2021/07/11 04:28:22;;;;;;;;;;;;;;;15.82;87.11;101347.88;5114926;28;20040;-64
2021/07/11 04:30:50;;;;;;;45.30;24.73;;;;;;;15.99;86.27;101342.44;5114532;28;19941;-64
2021/07/11 04:33:17;;;;;;;43.58;25.38;;;;;;;15.91;87.05;101341.47;5113269;28;20123;-64
2021/07/11 04:35:45;;;;;;;55.00;24.92;;;;;;;16.07;86.35;101345.09;5112832;28;20048;-65
2021/07/11 04:38:12;;;;;;;51.60;25.27;;;;;;;16.17;85.85;101340.38;5114371;28;20093;-64
2021/07/11 04:40:39;;;;;;;43.92;23.80;;;;;;;16.25;85.25;101336.78;5114246;28;20043;-64
2021/07/11 04:43:06;;;;;;;51.65;25.42;;;;;;;16.19;86.06;101332.13;5112986;28;20040;-64
2021/07/11 04:45:32;;;;;;;47.90;27.05;;;;;;;16.06;86.66;101336.25;5113553;28;20408;-64
2021/07/11 04:47:59;;;;;;;45.00;25.35;;;;;;;16.00;86.54;101331.56;5112180;28;20051;-64
2021/07/11 04:50:26;;;;;;;50.28;25.25;;;;;;;16.12;86.17;101334.69;5095977;28;20036;-64
2021/07/11 04:52:53;;;;;;;53.22;26.45;;;;;;;16.28;85.76;101333.75;5112916;28;20074;-65
2021/07/11 04:55:19;;;;;;;51.13;25.23;;;;;;;16.23;85.58;101328.94;5114178;27;20043;-64
2021/07/11 04:57:46;;;;;;;48.67;26.08;;;;;;;16.33;85.03;101333.22;5113854;28;20039;-64
2021/07/11 05:00:14;;;;;;;45.30;24.85;;;;;;;16.33;85.30;101333.22;5112976;28;20036;-64
2021/07/11 05:02:41;;;;;;;53.55;26.20;;;;;;;16.24;85.93;101332.44;5112374;28;20134;-64
2021/07/11 05:05:08;;;;;;;48.95;25.02;;;;;;;16.13;86.70;101333.66;5113677;28;20046;-64
2021/07/11 05:07:36;;;;;;;48.08;26.75;;;;;;;16.23;86.02;101338.81;5113802;28;20524;-64
2021/07/11 05:10:07;;;;;;;49.88;26.20;;;;;;;16.35;85.40;101336.56;5114097;28;20134;-64
2021/07/11 05:12:34;;;;;;;50.13;25.60;;;;;;;16.33;85.93;101335.91;5113487;28;20046;-64
2021/07/11 05:15:01;;;;;;;57.65;27.92;;;;;;;16.24;86.07;101335.13;5113791;28;20032;-64
2021/07/11 05:17:27;;;;;;;52.92;28.17;;;;;;;16.39;85.13;101328.00;5112825;28;20054;-64
2021/07/11 05:19:54;;;;;;;57.53;29.05;;;;;;;16.44;83.99;101325.59;5092367;28;20040;-64
2021/07/11 05:22:21;;;;;;;54.83;28.30;;;;;;;16.38;84.77;101330.84;5091602;28;20082;-64
2021/07/11 05:24:49;;;;;;;53.60;29.60;;;;;;;16.30;86.32;101326.41;5093249;28;20040;-64
2021/07/11 05:27:16;;;;;;;55.08;28.92;;;;;;;16.36;85.10;101325.66;5093072;28;20087;-64
2021/07/11 05:29:43;;;;;;;58.55;29.55;;;;;;;16.34;85.85;101322.34;5093724;28;20043;-64
2021/07/11 05:32:09;;;;;;;65.88;30.25;;;;;;;16.33;86.38;101325.19;5092611;28;20036;-65
2021/07/11 05:34:36;;;;;;;53.80;29.92;;;;;;;16.40;86.08;101318.94;5093264;28;20399;-64
2021/07/11 05:37:03;;;;;;;58.75;30.83;;;;;;;16.54;86.65;101328.06;5100450;28;20043;-64
2021/07/11 05:39:30;;;;;;;55.92;30.15;;;;;;;16.50;84.21;101324.91;5111977;28;20404;-64
2021/07/11 05:41:57;;;;;;;55.80;30.10;;;;;;;16.63;84.76;101331.50;5113473;28;20036;-64
2021/07/11 05:44:24;;;;;;;62.05;32.08;;;;;;;16.68;84.76;101342.50;5111940;28;20043;-64
2021/07/11 05:46:50;;;;;;;63.50;31.60;;;;;;;16.60;85.38;101339.91;5111174;28;20484;-65
2021/07/11 05:49:17;;;;;;;66.40;31.75;;;;;;;16.77;84.15;101337.91;5112864;28;20047;-64
2021/07/11 05:51:44;;;;;;;56.53;30.23;;;;;;;16.74;84.21;101351.69;5112027;28;20146;-64
2021/07/11 05:54:10;;;;;;;70.35;33.20;;;;;;;16.57;85.81;101350.97;5111736;28;20400;-64
2021/07/11 05:56:37;;;;;;;64.32;31.95;;;;;;;16.74;85.33;101365.06;5112917;28;20090;-65
2021/07/11 05:59:04;;;;;;;71.28;32.83;;;;;;;16.74;85.77;101362.41;5112812;28;20040;-64
2021/07/11 06:01:31;;;;;;;69.10;32.20;;;;;;;16.81;84.54;101361.50;5112815;28;20071;-65
2021/07/11 06:03:58;;;;;;;63.88;32.70;;;;;;;16.72;85.11;101361.72;5111719;28;20551;-64
2021/07/11 06:06:24;;;;;;;62.90;31.65;;;;;;;16.86;84.13;101348.44;5111940;28;20074;-64
2021/07/11 06:08:51;;;;;;;62.72;31.88;;;;;;;16.72;84.51;101353.69;5111707;28;20051;-64
2021/07/11 06:11:18;;;;;;;69.13;33.35;;;;;;;16.58;85.62;101333.88;5111814;28;20081;-64
2021/07/11 06:13:46;;;;;;;73.70;34.47;;;;;;;16.56;86.62;101342.09;5111204;28;20040;-65
2021/07/11 06:16:13;;;;;;;65.90;33.28;;;;;;;16.59;85.98;101349.78;5093338;28;20051;-64
2021/07/11 06:18:40;;;;;;;69.28;35.00;;;;;;;16.69;85.71;101357.56;5112952;28;20126;-64
2021/07/11 06:21:06;;;;;;;71.75;35.28;;;;;;;16.68;86.90;101354.06;5095135;28;20092;-64
2021/07/11 06:23:33;;;;;;;89.38;36.75;;;;;;;16.69;87.07;101357.56;5113000;28;20044;-64
2021/07/11 06:26:00;;;;;;;77.18;38.03;;;;;;;16.76;85.85;101369.22;5111665;28;20051;-64
2021/07/11 06:28:27;;;;;;;68.05;34.83;;;;;;;16.98;84.67;101364.06;5110829;28;20050;-64
2021/07/11 06:30:54;;;;;;;81.22;37.22;;;;;;;16.86;84.20;101372.53;5094842;28;20048;-64
2021/07/11 06:33:21;;;;;;;81.70;36.92;;;;;;;16.72;85.92;101361.72;5112858;28;20070;-64
2021/07/11 06:35:48;;;;;;;88.93;40.22;;;;;;;16.78;86.50;101369.88;5077725;28;20125;-65
2021/07/11 06:38:15;;;;;;;90.45;39.30;;;;;;;16.78;85.75;101369.06;5112816;28;20431;-64
2021/07/11 06:40:42;;;;;;;83.88;38.95;;;;;;;16.71;87.06;101371.59;5092882;28;20036;-64
2021/07/11 06:43:08;;;;;;;88.57;38.17;;;;;;;16.87;85.32;101376.88;5111053;28;20450;-64
2021/07/11 06:45:35;;;;;;;84.47;38.63;;;;;;;16.84;86.67;101374.53;5112825;28;20047;-64
2021/07/11 06:48:02;;;;;;;90.03;41.25;;;;;;;16.93;85.14;101383.34;5112556;28;20044;-64
2021/07/11 06:50:29;;;;;;;86.10;40.03;;;;;;;16.82;85.80;101381.06;5112773;28;20069;-64
2021/07/11 06:52:56;;;;;;;84.95;40.38;;;;;;;16.99;85.46;101374.59;5112556;28;20050;-64
2021/07/11 06:55:22;;;;;;;92.80;41.38;;;;;;;16.94;86.00;101389.56;5111140;28;20032;-64
2021/07/11 06:57:49;;;;;;;98.47;41.05;;;;;;;17.02;85.38;101392.16;5110845;28;20043;-64
2021/07/11 07:00:16;;;;;;;95.93;41.35;;;;;;;17.01;85.19;101398.56;5111535;28;20070;-64
2021/07/11 07:02:43;;;;;;;94.28;41.28;;;;;;;16.91;85.41;101393.41;5112287;28;20055;-64
2021/07/11 07:05:11;;;;;;;98.97;42.08;;;;;;;17.12;83.53;101394.56;5112455;28;20039;-64
2021/07/11 07:07:39;;;;;;;108.72;43.83;;;;;;;16.83;85.73;101388.97;5112256;28;20044;-64
2021/07/11 07:10:09;;;;;;;105.65;42.80;;;;;;;16.82;86.05;101395.28;5113853;28;20050;-64
2021/07/11 07:12:37;;;;;;;111.05;43.95;;;;;;;16.80;86.32;101396.50;5115945;28;20456;-64
2021/07/11 07:15:06;;;;;;;103.50;42.92;;;;;;;17.08;84.31;101388.75;5114777;28;20431;-64
2021/07/11 07:17:33;;;;;;;93.90;42.30;;;;;;;17.01;84.97;101391.34;5097573;28;20514;-64
2021/07/11 07:20:00;;;;;;;92.68;41.33;;;;;;;16.95;84.80;101396.56;5117902;27;20043;-64
2021/07/11 07:22:27;;;;;;;91.60;41.30;;;;;;;17.02;84.20;101400.19;5116428;28;20043;-64
2021/07/11 07:24:54;;;;;;;91.40;40.28;;;;;;;17.03;84.02;101401.88;5112827;28;20093;-64
2021/07/11 07:27:20;;;;;;;100.65;40.88;;;;;;;17.00;84.53;101408.41;5114358;28;20040;-64
2021/07/11 07:29:47;;;;;;;91.30;40.72;;;;;;;17.00;83.90;101405.75;5115911;28;20070;-64
2021/07/11 07:32:14;;;;;;;92.43;40.35;;;;;;;16.99;84.38;101414.81;5115873;28;20067;-64
2021/07/11 07:34:41;;;;;;;94.00;43.10;;;;;;;17.00;84.83;101410.28;5114379;28;20074;-64
2021/07/11 07:37:08;;;;;;;93.07;41.40;;;;;;;17.03;84.31;101415.28;5114891;28;20044;-64
2021/07/11 07:39:35;;;;;;;98.60;42.17;;;;;;;17.00;85.22;101413.78;5114331;28;20134;-64
2021/07/11 07:42:02;;;;;;;89.07;41.50;;;;;;;17.05;85.56;101414.06;5114250;28;20399;-64
2021/07/11 07:44:30;;;;;;;94.85;41.17;;;;;;;16.98;86.39;101417.66;5115354;28;20032;-64
2021/07/11 07:46:57;;;;;;;84.40;37.28;;;;;;;17.32;83.19;101416.34;5097448;28;20035;-64
2021/07/11 07:49:24;;;;;;;69.20;34.30;;;;;;;17.35;82.39;101416.81;5113872;28;20115;-64
2021/07/11 07:51:51;;;;;;;73.05;35.67;;;;;;;17.11;84.03;101415.19;5111855;28;20035;-64
2021/07/11 07:54:18;;;;;;;63.65;32.38;;;;;;;17.14;82.85;101422.88;5114874;28;20042;-64
2021/07/11 07:56:45;;;;;;;70.10;33.13;;;;;;;17.15;82.74;101424.53;5114670;28;20039;-64
2021/07/11 07:59:12;;;;;;;66.95;32.03;;;;;;;17.03;82.36;101431.38;5114883;28;20035;-64
2021/07/11 08:01:38;;;;;;;69.05;32.75;;;;;;;16.99;83.29;101427.34;5113737;28;20052;-64
2021/07/11 08:04:05;;;;;;;62.63;31.52;;;;;;;17.04;82.38;101433.00;5113928;28;20126;-64
2021/07/11 08:06:32;;;;;;;67.78;33.42;;;;;;;16.87;83.21;101425.09;5096747;28;20040;-64
2021/07/11 08:08:59;;;;;;;63.75;31.27;;;;;;;16.88;82.46;101431.28;5113625;28;20040;-64
2021/07/11 08:11:26;;;;;;;66.82;33.72;;;;;;;16.72;84.72;101432.22;5096796;28;20049;-64
2021/07/11 08:13:53;;;;;;;72.45;35.42;;;;;;;16.62;85.51;101434.28;5114771;28;20043;-64
2021/07/11 08:16:20;;;;;;;66.80;33.25;;;;;;;16.78;82.71;101436.84;5092823;28;20131;-64
2021/07/11 08:18:49;;;;;;;69.28;32.33;;;;;;;16.89;82.50;101439.16;5094108;28;20089;-64
2021/07/11 08:21:16;;;;;;;71.22;35.60;;;;;;;16.79;84.65;101449.25;5093295;28;20051;-64
2021/07/11 08:23:43;;;;;;;65.22;32.53;;;;;;;17.02;82.48;101443.09;5093492;28;20139;-64
2021/07/11 08:26:10;;;;;;;70.22;33.25;;;;;;;16.94;82.57;101444.00;5113214;28;20063;-64
2021/07/11 08:28:36;;;;;;;69.32;32.38;;;;;;;16.96;82.79;101438.47;5111326;28;20409;-64
2021/07/11 08:31:03;;;;;;;70.78;32.55;;;;;;;17.07;81.53;101443.38;5114632;28;20050;-64
2021/07/11 08:33:30;;;;;;;65.50;31.75;;;;;;;16.98;82.00;101449.81;5096170;28;20514;-65
2021/07/11 08:35:58;;;;;;;73.45;35.13;;;;;;;17.10;84.17;101447.53;5112903;28;20093;-65
2021/07/11 08:38:25;;;;;;;76.55;34.35;;;;;;;17.16;82.55;101442.31;5113224;28;20234;-64
2021/07/11 08:40:52;;;;;;;69.05;33.80;;;;;;;17.44;80.91;101442.56;5113022;28;20043;-65
2021/07/11 08:43:20;;;;;;;60.20;31.60;;;;;;;17.41;81.06;101442.09;5114510;28;20046;-64
2021/07/11 08:45:47;;;;;;;68.70;34.13;;;;;;;17.49;81.28;101438.50;5113934;28;20040;-64
2021/07/11 08:48:13;;;;;;;74.75;33.35;;;;;;;17.48;79.29;101444.88;5095726;28;20062;-64
2021/07/11 08:50:40;;;;;;;73.35;33.85;;;;;;;17.55;79.28;101435.91;5114223;28;20043;-63
2021/07/11 08:53:13;;;;;;;72.18;35.83;;;;;;;17.63;80.85;101435.81;5111965;28;20050;-64
2021/07/11 08:55:41;;;;;;;70.57;35.17;;;;;;;17.81;78.17;101430.09;5112942;28;20059;-64
2021/07/11 08:58:09;;;;;;;71.10;35.17;;;;;;;17.91;77.26;101435.22;5112474;28;20040;-63
2021/07/11 09:00:37;;;;;;;75.28;36.97;;;;;;;17.95;77.64;101422.25;5113561;28;20126;-63
2021/07/11 09:03:06;;;;;;;69.82;35.05;;;;;;;18.02;78.72;101426.69;5095904;28;20039;-63
2021/07/11 09:05:39;;;;;;;73.00;36.72;;;;;;;18.03;79.54;101425.69;5114035;28;20063;-63
2021/07/11 09:08:12;;;;;;;65.00;34.28;;;;;;;18.22;75.78;101429.63;5113703;28;20482;-63
2021/07/11 09:10:51;;;;;;;64.97;33.70;;;;;;;18.37;75.43;101429.63;5095876;28;20039;-63
2021/07/11 09:13:20;;;;;;;69.55;34.60;;;;;;;18.41;74.65;101424.69;5112411;28;20118;-65
2021/07/11 09:15:51;;;;;;;68.80;34.20;;;;;;;18.63;75.11;101422.88;5112344;28;20042;-65
2021/07/11 09:18:24;;;;;;;74.20;35.72;;;;;;;18.93;72.33;101433.53;5112367;28;20070;-64
2021/07/11 09:21:11;;;;;;;66.07;34.65;;;;;;;19.06;72.29;101427.44;5112891;27;20047;-64
2021/07/11 09:23:39;;;;;;;68.13;36.50;;;;;;;18.92;73.83;101430.00;5113425;28;20075;-63
2021/07/11 09:26:14;;;;;;;69.00;35.03;;;;;;;18.96;73.05;101433.97;5112340;28;20492;-64
2021/07/11 09:28:50;;;;;;;75.30;36.42;;;;;;;19.03;72.35;101438.56;5113428;28;20043;-63
2021/07/11 09:31:19;;;;;;;71.53;37.25;;;;;;;19.02;74.66;101428.84;5113069;28;20122;-64
2021/07/11 09:33:57;;;;;;;68.38;36.33;;;;;;;19.06;74.77;101430.94;5113045;28;20039;-64
2021/07/11 09:36:26;;;;;;;65.85;35.45;;;;;;;19.10;75.23;101442.13;5113116;28;20074;-64
2021/07/11 09:38:56;;;;;;;61.38;34.15;;;;;;;19.08;74.96;101436.97;5113322;28;20048;-64
2021/07/11 09:41:27;;;;;;;63.10;33.55;;;;;;;19.08;74.12;101434.28;5113174;28;20067;-64
2021/07/11 09:43:58;;;;;;;59.20;33.70;;;;;;;18.94;74.28;101430.66;5113427;28;20131;-64
2021/07/11 09:46:28;;;;;;;66.78;34.58;;;;;;;18.92;74.14;101432.69;5111859;28;20119;-64
2021/07/11 09:48:55;;;;;;;58.20;33.38;;;;;;;19.16;73.60;101436.00;5110049;28;20075;-64
2021/07/11 09:51:24;;;;;;;65.68;35.08;;;;;;;19.24;73.28;101433.16;5113170;28;20043;-64
2021/07/11 09:53:53;;;;;;;61.80;34.05;;;;;;;19.61;70.50;101428.50;5111781;28;20044;-64
2021/07/11 09:56:41;;;;;;;55.30;31.98;;;;;;;19.90;66.52;101426.59;5111740;28;20039;-64
2021/07/11 09:59:10;;;;;;;63.75;34.20;;;;;;;20.17;68.76;101424.03;5112882;28;20075;-64
2021/07/11 10:01:40;;;;;;;60.90;34.58;;;;;;;20.45;67.32;101424.75;5112891;28;20047;-64
2021/07/11 10:04:08;;;;;;;54.15;30.10;;;;;;;20.59;67.73;101432.88;5111934;28;20057;-64
2021/07/11 10:06:36;;;;;;;43.35;23.65;;;;;;;20.40;65.82;101423.72;5111760;28;20089;-64
2021/07/11 10:09:05;;;;;;;48.58;26.67;;;;;;;19.97;66.75;101423.94;5112781;28;20036;-64
2021/07/11 10:11:32;;;;;;;44.08;25.77;;;;;;;20.35;67.32;101421.59;5111595;28;20046;-64
2021/07/11 10:13:59;;;;;;;46.28;26.33;;;;;;;20.82;64.60;101427.16;5111646;28;20096;-64
2021/07/11 10:16:29;;;;;;;43.60;25.83;;;;;;;20.86;66.48;101425.69;5110789;28;20105;-64
2021/07/11 10:18:59;;;;;;;41.60;25.02;;;;;;;20.76;65.54;101433.38;5111763;28;20505;-64
2021/07/11 10:21:28;;;;;;;30.67;19.35;;;;;;;20.68;60.65;101429.81;5112748;28;20097;-64
2021/07/11 10:23:56;;;;;;;34.80;20.30;;;;;;;20.63;66.30;101429.59;5111146;28;20040;-64
2021/07/11 10:26:23;;;;;;;33.53;21.48;;;;;;;20.98;63.12;101429.44;5111373;28;20424;-64
2021/07/11 10:28:51;;;;;;;34.65;19.65;;;;;;;21.28;62.14;101434.41;5111374;28;20040;-64
2021/07/11 10:31:27;;;;;;;33.55;20.33;;;;;;;21.16;60.61;101442.31;5112676;28;20132;-64
2021/07/11 10:33:56;;;;;;;31.75;20.23;;;;;;;20.85;64.89;101435.66;5111536;28;20130;-64
2021/07/11 10:36:32;;;;;;;30.85;19.05;;;;;;;20.70;63.81;101443.94;5110950;28;20484;-64
2021/07/11 10:38:59;;;;;;;32.22;19.25;;;;;;;20.65;63.83;101445.59;5111731;28;20088;-64
2021/07/11 10:41:30;;;;;;;32.80;20.20;;;;;;;20.69;63.55;101446.81;5110658;28;20149;-64
2021/07/11 10:46:47;;;;;;;30.95;19.13;;;;;;;20.51;63.24;101445.50;5090499;27;20861;-64
2021/07/11 10:49:20;;;;;;;33.03;18.48;;;;;;;20.23;65.18;101444.75;5089959;28;20032;-65
2021/07/11 10:51:51;;;;;;;26.83;16.67;;;;;;;20.21;64.44;101442.28;5090095;28;20102;-64
2021/07/11 10:54:28;;;;;;;30.65;17.00;;;;;;;20.30;64.25;101446.47;5088555;28;20048;-65
2021/07/11 10:56:58;;;;;;;27.05;15.85;;;;;;;20.26;63.66;101441.69;5071646;28;20044;-64
2021/07/11 10:59:41;;;;;;;24.17;16.00;;;;;;;20.35;65.26;101453.13;5089580;28;20048;-64
2021/07/11 11:05:01;;;;;;;24.23;14.40;;;;;;;20.73;60.01;101452.63;5110436;27;20384;-64
2021/07/11 11:07:53;;;;;;;25.67;14.15;;;;;;;20.67;59.31;101449.72;5108953;28;20121;-64
2021/07/11 11:10:27;;;;;;;21.42;12.90;;;;;;;20.89;59.86;101449.56;5108741;28;20135;-64
2021/07/11 11:13:26;;;;;;;23.38;13.05;;;;;;;21.18;57.84;101437.53;5110181;28;20040;-64
2021/07/11 11:15:57;;;;;;;18.50;11.48;;;;;;;21.47;57.87;101433.59;5109854;28;20075;-64
2021/07/11 11:18:38;;;;;;;21.08;10.02;;;;;;;21.50;57.42;101435.03;5108733;28;20144;-64
2021/07/11 11:23:44;;;;;;;16.75;8.88;;;;;;;21.74;55.89;101425.47;5110519;27;20866;-64
2021/07/11 11:26:16;;;;;;;16.60;9.30;;;;;;;21.93;58.85;101433.72;5110510;28;20051;-64
2021/07/11 11:28:43;;;;;;;14.95;8.73;;;;;;;22.41;57.06;101427.91;5110145;28;20194;-64